Nearby METAR Reports

 

EGNX - East Midlands, United Kingdom
Distance from station: W 5mi, 8km
Updated: 22/10/2021 00:20
Few Clouds
Few Clouds
 Wind from WSW
Wind: WSW 17 mph , 28 km/h
Temperature: 7°C
Wind Chill: 3°C
Dew Point: 3°C
Humidity: 76%
Barometer: 1016 hPa
Clouds: Few Clouds
Visibility: 6 miles , 10 km
Cloud details: Few Clouds 945 m
2021/10/21 23:20 EGNX 212320Z 24015KT 9999 FEW031 07/03 Q1016
EGBB - Birmingham Airpo, United Kingdom
Distance from station: SW 34mi, 55km
Updated: 22/10/2021 00:50
Clear
Clear
 Wind from SW
Wind: SW 5 mph , 7 km/h
Temperature: 6°C
Wind Chill: 4°C
Dew Point: 4°C
Humidity: 87%
Barometer: 1017 hPa
Summary: Clear
Visibility: greater than 7 miles , 10 km
2021/10/21 23:50 EGBB 212350Z 22004KT 200V270 CAVOK 06/04 Q1017
 
EGXP - Scampton RAF, United Kingdom
Distance from station: NE 41mi, 66km
Updated: 22/10/2021 00:50
Clear
Clear
 Wind from WSW
Wind: WSW 12 mph , 19 km/h
Temperature: 5°C
Wind Chill: 1°C
Dew Point: 4°C
Humidity: 93%
Barometer: 1014 hPa
Clouds: Clear
Visibility: 6 miles , 10 km
2021/10/21 23:50 EGXP 212350Z AUTO 25010KT 9999 // NCD 05/04 Q1014
EGCN - Doncaster Sheffi, United Kingdom
Distance from station: N 46mi, 74km
Updated: 22/10/2021 00:50
Clear
Clear
 Wind from WSW
Wind: WSW 10 mph , 17 km/h
Temperature: 7°C
Wind Chill: 4°C
Dew Point: 4°C
Humidity: 81%
Barometer: 1015 hPa
Summary: Clear
Visibility: greater than 7 miles , 10 km
2021/10/21 23:50 EGCN 212350Z 24009KT CAVOK 07/04 Q1015
 
EGPB - Sumburgh, United Kingdom
Distance from station: N 491mi, 791km
Updated: 22/10/2021 00:50
Light rain, Mostly cloudy
Light rain, Mostly cloudy
 Wind from NW
Wind: NW 17 mph , 28 km/h
Temperature: 5°C
Wind Chill: 1°C
Dew Point: 2°C
Humidity: 81%
Barometer: 999 hPa
Summary: Light rain
Clouds: Mostly cloudy
Visibility: 6 miles , 10 km
Cloud details: Partly cloudy 488 m
Mostly cloudy 1219 m
2021/10/21 23:50 EGPB 212350Z AUTO 32015KT 9999 -RA SCT016/// BKN040/// 05/02 Q0999 RERA
EGPO - Stornoway, United Kingdom
Distance from station: NW 561mi, 903km
Updated: 22/10/2021 00:50
Mostly cloudy
Mostly cloudy
 Wind from WNW
Wind: WNW 10 mph , 17 km/h
Temperature: 8°C
Wind Chill: 5°C
Dew Point: 5°C
Humidity: 82%
Barometer: 1007 hPa
Clouds: Mostly cloudy
Visibility: 6 miles , 10 km
Cloud details: Partly cloudy 792 m
Mostly cloudy 1097 m
2021/10/21 23:50 EGPO 212350Z AUTO 29009KT 9999 SCT026/// BKN036/// 08/05 Q1007